createdAt,value
2023-03-17T00:01:55.921Z,44.10
2023-03-17T00:04:24.450Z,43.60
2023-03-17T00:06:53.023Z,43.40
2023-03-17T00:09:20.862Z,43.60
2023-03-17T00:11:47.807Z,44.00
2023-03-17T00:14:14.881Z,43.80
2023-03-17T00:16:45.057Z,43.90
2023-03-17T00:19:17.222Z,44.30
2023-03-17T00:21:46.106Z,44.30
2023-03-17T00:24:15.105Z,44.40
2023-03-17T00:26:43.310Z,44.50
2023-03-17T00:29:10.341Z,45.00
2023-03-17T00:31:39.294Z,44.70
2023-03-17T00:34:08.041Z,44.70
2023-03-17T00:36:35.709Z,44.70
2023-03-17T00:39:03.392Z,44.70
2023-03-17T00:41:31.496Z,44.90
2023-03-17T00:43:58.525Z,44.50
2023-03-17T00:46:28.758Z,44.60
2023-03-17T00:48:55.703Z,44.60
2023-03-17T00:51:23.527Z,44.60
2023-03-17T00:53:50.680Z,44.50
2023-03-17T00:56:20.809Z,44.80
2023-03-17T00:58:48.503Z,44.80
2023-03-17T01:01:15.942Z,44.80
2023-03-17T01:03:42.936Z,44.70
2023-03-17T01:06:13.315Z,44.70
2023-03-17T01:08:41.247Z,45.20
2023-03-17T01:11:18.824Z,45.20
2023-03-17T01:13:45.831Z,44.70
2023-03-17T01:16:12.966Z,45.10
2023-03-17T01:18:40.036Z,44.70
2023-03-17T01:21:07.884Z,45.00
2023-03-17T01:23:34.704Z,45.00
2023-03-17T01:26:01.753Z,44.90
2023-03-17T01:28:29.014Z,45.30
2023-03-17T01:30:56.787Z,44.90
2023-03-17T01:33:24.333Z,45.50
2023-03-17T01:35:51.543Z,45.20
2023-03-17T01:38:19.383Z,45.50
2023-03-17T01:40:51.869Z,44.90
2023-03-17T01:43:23.275Z,45.50
2023-03-17T01:46:25.903Z,45.40
2023-03-17T01:49:09.460Z,45.30
2023-03-17T01:51:52.634Z,45.20
2023-03-17T01:54:44.893Z,45.30
2023-03-17T01:57:32.859Z,45.30
2023-03-17T02:00:09.498Z,45.50
2023-03-17T02:02:39.316Z,45.60
2023-03-17T02:05:09.347Z,45.80
2023-03-17T02:07:36.664Z,45.90
2023-03-17T02:10:05.957Z,45.80
2023-03-17T02:12:35.109Z,45.70
2023-03-17T02:15:01.987Z,46.10
2023-03-17T02:17:29.532Z,46.20
2023-03-17T02:19:57.039Z,46.30
2023-03-17T02:22:24.125Z,46.10
2023-03-17T02:24:58.309Z,46.50
2023-03-17T02:27:31.773Z,45.90
2023-03-17T02:29:59.838Z,46.40
2023-03-17T02:32:26.818Z,46.00
2023-03-17T02:34:53.640Z,46.40
2023-03-17T02:37:20.618Z,46.40
2023-03-17T02:39:47.584Z,46.60
2023-03-17T02:42:14.622Z,47.30
2023-03-17T02:44:41.410Z,48.10
2023-03-17T02:47:08.644Z,48.00
2023-03-17T02:49:37.391Z,47.70
2023-03-17T02:52:05.605Z,47.90
2023-03-17T02:54:32.885Z,47.90
2023-03-17T02:57:00.166Z,48.10
2023-03-17T02:59:27.655Z,48.40
2023-03-17T03:01:56.165Z,48.50
2023-03-17T03:04:24.258Z,48.00
2023-03-17T03:06:51.183Z,48.30
2023-03-17T03:09:18.134Z,47.90
2023-03-17T03:11:45.813Z,48.10
2023-03-17T03:14:13.164Z,48.10
2023-03-17T03:16:40.262Z,47.80
2023-03-17T03:19:07.986Z,48.00
2023-03-17T03:21:35.445Z,48.20
2023-03-17T03:24:02.589Z,47.20
2023-03-17T03:26:29.454Z,47.50
2023-03-17T03:28:57.490Z,47.30
2023-03-17T03:31:24.999Z,47.20
2023-03-17T03:33:51.827Z,47.00
2023-03-17T03:36:18.838Z,47.10
2023-03-17T03:38:45.822Z,46.90
2023-03-17T03:41:13.116Z,47.10
2023-03-17T03:43:40.840Z,46.90
2023-03-17T03:46:07.747Z,47.30
2023-03-17T03:48:34.795Z,47.50
2023-03-17T03:51:02.258Z,47.10
2023-03-17T03:53:29.919Z,46.70
2023-03-17T03:55:57.171Z,47.40
2023-03-17T03:58:24.160Z,47.00
2023-03-17T04:00:51.191Z,47.00
2023-03-17T04:03:18.526Z,46.90
2023-03-17T04:05:45.481Z,46.90
2023-03-17T04:08:12.461Z,46.50
2023-03-17T04:10:39.307Z,46.80
2023-03-17T04:13:06.625Z,47.00
2023-03-17T04:15:33.754Z,46.80
2023-03-17T04:18:00.539Z,46.80
2023-03-17T04:20:28.679Z,46.70
2023-03-17T04:22:56.116Z,47.10
2023-03-17T04:25:22.917Z,47.10
2023-03-17T04:27:49.751Z,46.80
2023-03-17T04:30:17.086Z,47.10
2023-03-17T04:32:44.798Z,47.50
2023-03-17T04:35:17.244Z,47.60
2023-03-17T04:37:44.482Z,48.10
2023-03-17T04:40:13.371Z,48.20
2023-03-17T04:42:40.600Z,48.60
2023-03-17T04:45:09.660Z,48.60
2023-03-17T04:47:36.681Z,48.70
2023-03-17T04:50:04.302Z,48.90
2023-03-17T04:52:31.200Z,48.90
2023-03-17T04:54:58.102Z,49.60
2023-03-17T04:57:24.880Z,49.20
2023-03-17T04:59:51.832Z,48.90
2023-03-17T05:02:18.986Z,48.70
2023-03-17T05:04:46.764Z,48.30
2023-03-17T05:07:13.808Z,47.90
2023-03-17T05:09:40.778Z,47.80
2023-03-17T05:12:08.708Z,47.80
2023-03-17T05:14:35.898Z,47.80
2023-03-17T05:17:02.815Z,47.80
2023-03-17T05:19:29.628Z,47.90
2023-03-17T05:21:56.754Z,48.00
2023-03-17T05:24:23.883Z,47.80
2023-03-17T05:26:50.714Z,47.70
2023-03-17T05:29:17.567Z,47.20
2023-03-17T05:31:44.755Z,47.20
2023-03-17T05:34:11.517Z,47.60
2023-03-17T05:36:38.477Z,47.50
2023-03-17T05:39:05.315Z,47.90
2023-03-17T05:41:32.101Z,47.70
2023-03-17T05:43:59.000Z,48.00
2023-03-17T05:46:26.727Z,47.90
2023-03-17T05:48:53.534Z,48.10
2023-03-17T05:51:20.627Z,48.10
2023-03-17T05:53:47.838Z,47.90
2023-03-17T05:56:14.618Z,47.60
2023-03-17T05:58:41.683Z,47.40
2023-03-17T06:01:08.532Z,47.30
2023-03-17T06:03:38.677Z,47.40
2023-03-17T06:06:06.177Z,46.70
2023-03-17T06:08:32.951Z,46.90
2023-03-17T06:10:59.755Z,47.10
2023-03-17T06:13:27.205Z,46.80
2023-03-17T06:15:54.033Z,47.10
2023-03-17T06:18:20.845Z,46.90
2023-03-17T06:20:47.618Z,46.80
2023-03-17T06:23:14.568Z,46.50
2023-03-17T06:25:41.624Z,47.10
2023-03-17T06:28:08.761Z,46.80
2023-03-17T06:30:38.172Z,46.80
2023-03-17T06:33:07.015Z,46.40
2023-03-17T06:35:34.443Z,46.40
2023-03-17T06:38:02.280Z,46.20
2023-03-17T06:40:29.854Z,46.10
2023-03-17T06:42:57.170Z,45.80
2023-03-17T06:45:24.074Z,45.80
2023-03-17T06:47:50.846Z,45.30
2023-03-17T06:50:17.948Z,45.60
2023-03-17T06:52:46.712Z,44.70
2023-03-17T06:55:14.018Z,44.50
2023-03-17T06:57:41.037Z,44.50
2023-03-17T07:00:08.618Z,44.00
2023-03-17T07:02:35.459Z,43.80
2023-03-17T07:05:04.618Z,44.00
2023-03-17T07:07:31.669Z,44.40
2023-03-17T07:09:58.499Z,44.50
2023-03-17T07:12:25.285Z,44.00
2023-03-17T07:14:52.155Z,43.10
2023-03-17T07:17:19.772Z,42.50
2023-03-17T07:19:46.966Z,41.40
2023-03-17T07:22:13.943Z,41.20
2023-03-17T07:24:43.214Z,40.50
2023-03-17T07:27:10.444Z,40.30
2023-03-17T07:29:37.709Z,40.40
2023-03-17T07:32:07.122Z,40.00
2023-03-17T07:34:34.605Z,39.80
2023-03-17T07:37:01.947Z,38.70
2023-03-17T07:39:28.957Z,38.30
2023-03-17T07:41:55.907Z,38.30
2023-03-17T07:44:23.576Z,37.90
2023-03-17T07:46:51.524Z,37.60
2023-03-17T07:49:34.016Z,36.90
2023-03-17T07:52:07.093Z,37.10
2023-03-17T07:54:34.322Z,37.50
2023-03-17T07:57:02.519Z,37.20
2023-03-17T07:59:30.096Z,37.40
2023-03-17T08:01:59.710Z,37.70
2023-03-17T08:04:27.647Z,37.60
2023-03-17T08:06:54.667Z,38.20
2023-03-17T08:09:25.026Z,37.90
2023-03-17T08:11:52.186Z,37.90
2023-03-17T08:14:19.224Z,37.50
2023-03-17T08:16:46.084Z,36.40
2023-03-17T08:19:13.116Z,36.90
2023-03-17T08:21:39.965Z,35.90
2023-03-17T08:24:06.908Z,36.20
2023-03-17T08:26:34.215Z,36.00
2023-03-17T08:29:01.509Z,36.00
2023-03-17T08:31:28.626Z,36.00
2023-03-17T08:33:57.217Z,36.10
2023-03-17T08:36:24.392Z,34.50
2023-03-17T08:38:51.184Z,34.40
2023-03-17T08:41:20.578Z,34.00
2023-03-17T08:43:48.346Z,34.40
2023-03-17T08:46:17.160Z,33.50
2023-03-17T08:48:45.312Z,33.70
2023-03-17T08:51:12.506Z,34.10
2023-03-17T08:53:39.874Z,33.60
2023-03-17T08:56:08.443Z,33.50
2023-03-17T08:58:37.518Z,32.80
2023-03-17T09:01:05.215Z,32.50
2023-03-17T09:03:33.000Z,31.70
2023-03-17T09:06:00.166Z,31.50
2023-03-17T09:08:27.908Z,30.10
2023-03-17T09:10:54.896Z,30.10
2023-03-17T09:13:22.138Z,29.10
2023-03-17T09:15:52.059Z,29.70
2023-03-17T09:18:21.873Z,28.80
2023-03-17T09:20:48.986Z,29.50
2023-03-17T09:23:16.506Z,29.20
2023-03-17T09:25:43.451Z,28.80
2023-03-17T09:28:12.330Z,28.80
2023-03-17T09:30:42.767Z,28.30
2023-03-17T09:33:12.027Z,28.20
2023-03-17T09:35:40.008Z,28.40
2023-03-17T09:38:07.650Z,28.50
2023-03-17T09:40:43.633Z,27.50
2023-03-17T09:43:27.734Z,27.60
2023-03-17T09:45:56.159Z,26.90
2023-03-17T09:48:52.790Z,26.50
2023-03-17T09:51:20.080Z,25.30
2023-03-17T09:54:15.539Z,26.20
2023-03-17T09:56:47.465Z,26.00
2023-03-17T09:59:38.760Z,24.60
2023-03-17T10:02:23.990Z,25.40
2023-03-17T10:04:51.743Z,24.40
2023-03-17T10:07:26.127Z,23.30
2023-03-17T10:10:06.340Z,23.70
2023-03-17T10:12:53.215Z,24.00
2023-03-17T10:15:36.249Z,22.00
2023-03-17T10:18:13.877Z,22.30
2023-03-17T10:20:51.741Z,21.90
2023-03-17T10:23:22.262Z,21.60
2023-03-17T10:25:49.401Z,20.70
2023-03-17T10:28:30.806Z,19.10
2023-03-17T10:31:11.200Z,20.50
2023-03-17T10:33:38.245Z,20.70
2023-03-17T10:36:14.892Z,19.90
2023-03-17T10:38:45.527Z,21.20
2023-03-17T10:41:16.733Z,20.50
2023-03-17T10:43:53.727Z,21.10
2023-03-17T10:46:26.488Z,21.10
2023-03-17T10:49:16.620Z,21.50
2023-03-17T10:51:46.470Z,21.60
2023-03-17T10:54:18.672Z,21.40
2023-03-17T10:56:49.573Z,21.10
2023-03-17T11:02:00.206Z,19.90
2023-03-17T11:04:37.616Z,19.90
2023-03-17T11:07:17.574Z,20.00
2023-03-17T11:09:49.048Z,20.80
2023-03-17T11:12:28.703Z,20.90
2023-03-17T11:15:03.850Z,20.70
2023-03-17T11:17:43.125Z,19.90
2023-03-17T11:20:19.544Z,19.80
2023-03-17T11:23:17.889Z,19.50
2023-03-17T11:25:49.824Z,19.10
2023-03-17T11:28:22.777Z,19.70
2023-03-17T11:31:07.473Z,19.70
2023-03-17T11:33:55.039Z,20.10
2023-03-17T11:36:48.084Z,19.90
2023-03-17T11:39:20.046Z,19.50
2023-03-17T11:42:23.576Z,19.30
2023-03-17T11:45:02.556Z,20.20
2023-03-17T11:48:08.529Z,19.60
2023-03-17T11:50:59.890Z,19.70
2023-03-17T11:54:02.055Z,19.10
2023-03-17T11:57:04.607Z,19.80
2023-03-17T11:59:52.132Z,19.80
2023-03-17T12:02:42.654Z,19.50
2023-03-17T12:05:12.289Z,18.90
2023-03-17T12:08:02.291Z,19.40
2023-03-17T12:10:39.882Z,19.60
2023-03-17T12:13:21.826Z,18.90
2023-03-17T12:16:03.372Z,19.30
2023-03-17T12:18:46.352Z,18.90
2023-03-17T12:21:37.496Z,18.80
2023-03-17T12:24:17.253Z,17.30
2023-03-17T12:27:00.564Z,17.10
2023-03-17T12:30:16.721Z,17.30
2023-03-17T12:33:04.039Z,17.30
2023-03-17T12:35:38.668Z,16.70
2023-03-17T12:38:21.746Z,15.20
2023-03-17T12:41:19.086Z,15.00
2023-03-17T12:43:54.857Z,15.90
2023-03-17T12:46:43.392Z,15.30
2023-03-17T12:49:34.467Z,14.90
2023-03-17T12:52:14.272Z,14.40
2023-03-17T12:54:46.652Z,14.60
2023-03-17T12:57:37.568Z,14.40
2023-03-17T13:00:18.479Z,14.80
2023-03-17T13:02:50.271Z,15.10
2023-03-17T13:05:28.412Z,15.10
2023-03-17T13:07:59.562Z,15.80
2023-03-17T13:10:51.244Z,15.80
2023-03-17T13:13:54.893Z,15.70
2023-03-17T13:16:41.025Z,15.00
2023-03-17T13:19:22.976Z,16.20
2023-03-17T13:22:01.207Z,16.10
2023-03-17T13:24:48.970Z,15.70
2023-03-17T13:27:31.129Z,15.20
2023-03-17T13:29:59.515Z,16.50
2023-03-17T13:32:26.582Z,15.80
2023-03-17T13:35:19.443Z,15.00
2023-03-17T13:38:00.954Z,15.80
2023-03-17T13:40:48.593Z,15.60
2023-03-17T13:43:43.431Z,16.50
2023-03-17T13:46:28.923Z,15.60
2023-03-17T13:48:56.527Z,16.70
2023-03-17T13:51:27.361Z,15.90
2023-03-17T13:54:07.758Z,16.10
2023-03-17T13:56:36.336Z,16.20
2023-03-17T13:59:03.089Z,15.50
2023-03-17T14:01:37.649Z,15.80
2023-03-17T14:04:07.108Z,15.90
2023-03-17T14:06:38.146Z,16.30
2023-03-17T14:09:38.222Z,15.70
2023-03-17T14:12:32.829Z,16.80
2023-03-17T14:15:17.583Z,16.70
2023-03-17T14:17:50.027Z,16.60
2023-03-17T14:20:16.896Z,16.20
2023-03-17T14:22:46.174Z,16.80
2023-03-17T14:25:39.856Z,16.30
2023-03-17T14:28:11.499Z,16.40
2023-03-17T14:30:38.974Z,15.50
2023-03-17T14:33:15.253Z,15.70
2023-03-17T14:35:43.593Z,15.10
2023-03-17T14:38:22.493Z,15.50
2023-03-17T14:40:50.940Z,15.80
2023-03-17T14:43:18.036Z,15.60
2023-03-17T14:46:03.937Z,15.40
2023-03-17T14:48:33.580Z,16.40
2023-03-17T14:51:07.490Z,15.40
2023-03-17T14:53:35.434Z,15.90
2023-03-17T14:56:04.455Z,16.40
2023-03-17T14:58:38.128Z,16.50
2023-03-17T15:01:38.725Z,15.80
2023-03-17T15:04:17.838Z,16.00
2023-03-17T15:07:27.638Z,16.60
2023-03-17T15:10:04.142Z,16.50
2023-03-17T15:12:32.420Z,16.40
2023-03-17T15:15:22.568Z,16.10
2023-03-17T15:17:58.257Z,16.00
2023-03-17T15:20:25.818Z,16.00
2023-03-17T15:23:03.178Z,16.50
2023-03-17T15:25:33.031Z,17.20
2023-03-17T15:28:00.365Z,17.00
2023-03-17T15:30:29.508Z,17.50
2023-03-17T15:33:01.244Z,16.50
2023-03-17T15:35:28.785Z,16.40
2023-03-17T15:37:56.025Z,16.10
2023-03-17T15:40:22.797Z,16.20
2023-03-17T15:42:49.629Z,16.00
2023-03-17T15:45:18.122Z,16.00
2023-03-17T15:47:47.073Z,16.30
2023-03-17T15:50:30.132Z,16.80
2023-03-17T15:52:57.904Z,16.80
2023-03-17T15:55:29.490Z,16.90
2023-03-17T15:57:57.524Z,17.40
2023-03-17T16:00:29.429Z,16.90
2023-03-17T16:03:04.291Z,17.30
2023-03-17T16:05:33.876Z,17.30
2023-03-17T16:08:00.696Z,17.10
2023-03-17T16:10:33.380Z,17.20
2023-03-17T16:13:00.587Z,17.50
2023-03-17T16:15:31.769Z,17.40
2023-03-17T16:18:04.524Z,17.20
2023-03-17T16:20:39.370Z,17.60
2023-03-17T16:23:16.507Z,17.90
2023-03-17T16:25:43.873Z,17.90
2023-03-17T16:28:23.469Z,19.40
2023-03-17T16:30:51.786Z,20.40
2023-03-17T16:33:19.598Z,21.50
2023-03-17T16:35:48.829Z,21.30
2023-03-17T16:38:26.717Z,21.80
2023-03-17T16:41:16.088Z,22.00
2023-03-17T16:43:44.291Z,22.40
2023-03-17T16:46:11.897Z,22.60
2023-03-17T16:48:39.249Z,23.10
2023-03-17T16:51:06.762Z,23.10
2023-03-17T16:53:34.594Z,23.30
2023-03-17T16:56:01.309Z,23.80
2023-03-17T16:58:34.445Z,24.70
2023-03-17T17:01:04.042Z,24.50
2023-03-17T17:03:31.617Z,24.70
2023-03-17T17:05:58.789Z,24.80
2023-03-17T17:08:25.652Z,24.70
2023-03-17T17:10:52.459Z,24.70
2023-03-17T17:13:19.335Z,25.30
2023-03-17T17:15:46.518Z,25.30
2023-03-17T17:18:15.608Z,25.50
2023-03-17T17:20:44.405Z,25.90
2023-03-17T17:23:14.113Z,26.20
2023-03-17T17:25:41.383Z,26.30
2023-03-17T17:28:09.608Z,26.60
2023-03-17T17:30:36.536Z,27.30
2023-03-17T17:33:04.647Z,27.80
2023-03-17T17:35:33.279Z,28.60
2023-03-17T17:38:01.987Z,28.50
2023-03-17T17:40:29.647Z,28.90
2023-03-17T17:42:57.780Z,28.60
2023-03-17T17:45:25.006Z,29.20
2023-03-17T17:47:51.882Z,29.20
2023-03-17T17:50:30.345Z,29.40
2023-03-17T17:53:02.850Z,29.30
2023-03-17T17:55:29.777Z,29.80
2023-03-17T17:57:56.572Z,30.10
2023-03-17T18:00:25.690Z,31.00
2023-03-17T18:02:52.471Z,30.60
2023-03-17T18:05:19.328Z,31.30
2023-03-17T18:07:46.174Z,31.90
2023-03-17T18:10:23.987Z,31.30
2023-03-17T18:12:50.829Z,31.50
2023-03-17T18:15:18.128Z,31.00
2023-03-17T18:17:44.974Z,31.70
2023-03-17T18:20:14.105Z,31.70
2023-03-17T18:22:41.016Z,33.20
2023-03-17T18:25:10.233Z,33.30
2023-03-17T18:27:52.404Z,33.60
2023-03-17T18:30:23.335Z,33.80
2023-03-17T18:32:52.607Z,33.50
2023-03-17T18:35:22.320Z,34.40
2023-03-17T18:37:50.547Z,34.20
2023-03-17T18:40:19.149Z,34.10
2023-03-17T18:42:46.762Z,33.80
2023-03-17T18:45:14.350Z,34.20
2023-03-17T18:47:42.109Z,34.20
2023-03-17T18:50:12.897Z,34.20
2023-03-17T18:52:41.350Z,34.10
2023-03-17T18:55:11.268Z,34.30
2023-03-17T18:57:38.538Z,34.20
2023-03-17T19:00:08.625Z,34.70
2023-03-17T19:02:37.430Z,34.90
2023-03-17T19:05:06.339Z,35.30
2023-03-17T19:07:33.201Z,34.90
2023-03-17T19:10:00.296Z,35.30
2023-03-17T19:12:27.090Z,35.70
2023-03-17T19:14:53.858Z,36.10
2023-03-17T19:17:20.602Z,37.10
2023-03-17T19:19:50.265Z,37.00
2023-03-17T19:22:17.179Z,36.90
2023-03-17T19:24:44.060Z,37.50
2023-03-17T19:27:11.533Z,37.30
2023-03-17T19:29:38.752Z,38.00
2023-03-17T19:32:08.608Z,37.80
2023-03-17T19:34:35.429Z,38.10
2023-03-17T19:37:03.665Z,37.80
2023-03-17T19:39:31.438Z,39.10
2023-03-17T19:41:59.332Z,39.20
2023-03-17T19:44:26.496Z,39.30
2023-03-17T19:46:53.383Z,39.40
2023-03-17T19:49:21.224Z,39.70
2023-03-17T19:51:49.071Z,39.70
2023-03-17T19:54:17.349Z,39.80
2023-03-17T19:56:44.346Z,40.20
2023-03-17T19:59:11.504Z,40.40
2023-03-17T20:01:39.127Z,40.40
2023-03-17T20:04:12.194Z,41.30
2023-03-17T20:06:40.340Z,41.20
2023-03-17T20:09:08.944Z,40.70
2023-03-17T20:11:36.150Z,41.00
2023-03-17T20:14:03.823Z,41.60
2023-03-17T20:16:33.798Z,41.50
2023-03-17T20:19:01.351Z,42.10
2023-03-17T20:21:28.891Z,41.90
2023-03-17T20:23:56.385Z,42.40
2023-03-17T20:26:24.625Z,42.20
2023-03-17T20:28:53.851Z,42.60
2023-03-17T20:31:21.592Z,42.80
2023-03-17T20:33:48.818Z,42.90
2023-03-17T20:36:15.956Z,43.10
2023-03-17T20:38:43.852Z,43.20
2023-03-17T20:41:16.788Z,43.80
2023-03-17T20:43:45.046Z,43.30
2023-03-17T20:46:24.054Z,43.50
2023-03-17T20:48:58.795Z,43.30
2023-03-17T20:51:26.738Z,44.00
2023-03-17T20:53:55.094Z,44.30
2023-03-17T20:56:24.166Z,44.40
2023-03-17T20:58:53.235Z,44.50
2023-03-17T21:01:22.404Z,44.80
2023-03-17T21:03:50.387Z,44.60
2023-03-17T21:06:18.339Z,44.70
2023-03-17T21:08:46.312Z,45.30
2023-03-17T21:11:18.804Z,45.00
2023-03-17T21:13:46.177Z,44.80
2023-03-17T21:16:19.095Z,45.20
2023-03-17T21:18:46.365Z,45.10
2023-03-17T21:21:13.401Z,45.00
2023-03-17T21:23:41.244Z,45.20
2023-03-17T21:26:09.227Z,45.20
2023-03-17T21:28:41.238Z,45.50
2023-03-17T21:31:09.635Z,45.70
2023-03-17T21:33:37.193Z,45.60
2023-03-17T21:36:05.256Z,45.60
2023-03-17T21:38:32.211Z,45.80
2023-03-17T21:41:17.505Z,45.60
2023-03-17T21:43:44.622Z,46.20
2023-03-17T21:46:11.780Z,46.10
2023-03-17T21:48:38.888Z,46.60
2023-03-17T21:51:05.934Z,46.70
2023-03-17T21:53:33.247Z,46.90
2023-03-17T21:56:00.013Z,47.10
2023-03-17T21:58:27.299Z,46.90
2023-03-17T22:00:54.138Z,46.90
2023-03-17T22:03:20.918Z,47.10
2023-03-17T22:05:48.810Z,47.50
2023-03-17T22:08:15.678Z,47.50
2023-03-17T22:10:43.108Z,48.10
2023-03-17T22:13:09.990Z,48.00
2023-03-17T22:15:37.064Z,48.00
2023-03-17T22:18:04.049Z,48.20
2023-03-17T22:20:31.710Z,47.80
2023-03-17T22:22:58.541Z,47.70
2023-03-17T22:25:25.374Z,48.70
2023-03-17T22:27:53.744Z,48.70
2023-03-17T22:30:21.207Z,48.80
2023-03-17T22:32:48.028Z,49.10
2023-03-17T22:35:14.903Z,48.50
2023-03-17T22:37:42.070Z,48.60
2023-03-17T22:40:10.219Z,48.60
2023-03-17T22:42:36.995Z,48.70
2023-03-17T22:45:04.868Z,48.70
2023-03-17T22:47:31.617Z,49.00
2023-03-17T22:49:58.417Z,49.00
2023-03-17T22:52:25.317Z,48.80
2023-03-17T22:54:52.073Z,48.90
2023-03-17T22:57:19.089Z,48.80
2023-03-17T22:59:45.972Z,49.20
2023-03-17T23:02:12.862Z,48.90
2023-03-17T23:04:39.585Z,49.20
2023-03-17T23:07:06.431Z,49.10
2023-03-17T23:09:33.650Z,48.60
2023-03-17T23:12:00.612Z,49.20
2023-03-17T23:14:27.501Z,48.80
2023-03-17T23:16:54.774Z,49.00
2023-03-17T23:19:22.181Z,49.20
2023-03-17T23:21:48.995Z,48.80
2023-03-17T23:24:15.767Z,49.30
2023-03-17T23:26:42.529Z,49.00
2023-03-17T23:29:09.968Z,49.30
2023-03-17T23:31:37.154Z,49.20
2023-03-17T23:34:06.567Z,49.40
2023-03-17T23:36:35.139Z,49.30
2023-03-17T23:39:02.387Z,49.10
2023-03-17T23:41:29.137Z,49.10
2023-03-17T23:43:56.748Z,49.40
2023-03-17T23:46:23.707Z,49.10
2023-03-17T23:48:50.538Z,49.30
2023-03-17T23:51:18.011Z,49.40
2023-03-17T23:53:45.736Z,49.20
2023-03-17T23:56:13.091Z,49.70
2023-03-17T23:58:43.408Z,49.40
